メインページ
METAR-TAF:

METAR-TAF

空港 :

ジュネーヴ, スイス

ジュネーヴ空港

緯度: 46-15N, 経度: 006-08E, 海抜: 420m

現時点の気象観測

当レポートは16分前の19:20(UTC)に作成
北/北東の風 18kt、最大30ktの突風を伴う
気温 -3°C
湿度 54%
気圧 1014 hPa
視程10km以上
高度3700ftの雲はほとんどない

METAR: LSGG 251920Z 03018G30KT 9999 FEW037 M03/M11 Q1014 NOSIG

時間: 20:36 (19:36 UTC)

予報

当レポートは2時間11分前の17:25(UTC)に作成
予報は25日の 18時(UTC)から 26日の 24時(UTC)まで有効
北東の風 20kt、最大35ktの突風を伴う
視程10km以上
高度3500ftの雲はほとんどない

TAF: LSGG 251725Z 2518/2624 05020G35KT 9999 FEW035 TXM04/2615Z TNM06/2606Z

4,000以上の空港の気象観測と天気予報(METAR報とTAF報)

利用可能な観測所は地図上に黄色い丸と赤い丸で示す。

丸の上にカーソルを重ねると観測所名を参照できる。

次にクリックすると気象観測と天気予報を参照できる。

マップの切り替え:黒色「×」印の緑ボタンをクリックして拡大、「-」印の緑ボタンをクリックして縮小、緑色の三角印をクリックして隣りの地図に切り替え


METAR-TAF: